GosportINWX Station Historical Data
 
Daily Summary for November 25, 2020 Units:  English    Metric   Both
Daily Weekly Monthly Yearly Custom
  Current: High: Low: Average:
Temperature: 56.3 °F 56.3 °F 44.6 °F 48.9 °F
Dew Point: 52.5 °F 52.5 °F 37.2 °F 45.3 °F
Humidity: 87% 93% 75% 88%
Wind Speed: 8.8mph 29.9mph 0mph 5.4mph
Wind Gust: 14.9mph 29.9mph - -
WindSW - - SSE
Pressure: 29.43 in 29.68 in 29.43 in -
Precipitation: 0.99 in      
 
 
Tabular Data for November 25, 2020
Time Temperature Dew Point Pressure Wind Wind Speed Wind Gust Humidity Rainfall Rate (Hourly) solar
00:04 44.6 °F 37.2 °F 29.67 in SE 0.6 mph 1.7 mph 75% 0.00 in W/m2
00:09 44.8 °F 37.3 °F 29.67 in SE 1 mph 5.5 mph 75% 0.00 in W/m2
00:14 44.8 °F 37.3 °F 29.67 in SE 2.2 mph 5.5 mph 75% 0.00 in W/m2
00:19 44.8 °F 37.3 °F 29.68 in Calm   5.5 mph 75% 0.00 in W/m2
00:24 44.9 °F 37.5 °F 29.67 in SE 0.8 mph 5.5 mph 75.2% 0.00 in W/m2
00:29 45 °F 37.9 °F 29.67 in SE 0.8 mph 3.9 mph 76% 0.00 in W/m2
00:34 45.1 °F 38 °F 29.67 in SE 0.2 mph 3.9 mph 76% 0.00 in W/m2
00:39 45.2 °F 38.1 °F 29.67 in SE 0.1 mph 3.9 mph 76% 0.00 in W/m2
00:44 45.3 °F 38.2 °F 29.67 in SE 2.1 mph 3.9 mph 76% 0.00 in W/m2
00:54 45.5 °F 38.7 °F 29.66 in Calm   3.9 mph 77% 0.00 in W/m2
00:59 45.5 °F 38.7 °F 29.66 in Calm   3.9 mph 77% 0.00 in W/m2
01:04 45.5 °F 38.7 °F 29.66 in Calm     77% 0.00 in W/m2
01:09 45.5 °F 38.8 °F 29.66 in Calm     77.4% 0.00 in W/m2
01:14 45.5 °F 39 °F 29.66 in SE 0.3 mph 1.7 mph 78% 0.00 in W/m2
01:19 45.5 °F 39.3 °F 29.65 in Calm   1.7 mph 78.7% 0.00 in W/m2
01:24 45.5 °F 39.4 °F 29.65 in SE 1.2 mph 3.9 mph 79% 0.00 in W/m2
01:29 45.5 °F 39.6 °F 29.65 in ESE 2.6 mph 5.5 mph 79.8% 0.00 in W/m2
01:34 45.6 °F 39.8 °F 29.65 in SE 2.6 mph 5.5 mph 80% 0.00 in W/m2
01:39 45.9 °F 40 °F 29.65 in Calm   5.5 mph 80% 0.01 in W/m2
01:44 46.1 °F 40.3 °F 29.65 in SE 0.9 mph 5.5 mph 80% 0.01 in W/m2
01:49 46.3 °F 40.3 °F 29.65 in Calm   3.9 mph 79.6% 0.01 in W/m2
01:54 46.4 °F 40.2 °F 29.66 in Calm   3.9 mph 79% 0.02 in W/m2
01:59 46.2 °F 40.5 °F 29.65 in Calm     80.4% 0.05 in W/m2
02:04 46.1 °F 40.6 °F 29.65 in SE 0.3 mph 1.7 mph 81% 0.05 in W/m2
02:09 46 °F 40.5 °F 29.66 in Calm   1.7 mph 81% 0.07 in W/m2
02:14 46 °F 40.5 °F 29.66 in Calm   1.7 mph 81% 0.08 in W/m2
02:19 45.9 °F 40.6 °F 29.66 in Calm     81.8% 0.10 in W/m2
02:24 45.9 °F 40.7 °F 29.65 in Calm     82% 0.11 in W/m2
02:29 45.9 °F 40.7 °F 29.65 in Calm     82% 0.13 in W/m2
02:34 45.9 °F 41 °F 29.65 in Calm     82.6% 0.13 in W/m2
02:39 46 °F 41.2 °F 29.66 in East 0.2 mph 1.7 mph 83% 0.13 in W/m2
02:44 46 °F 41.2 °F 29.66 in Calm   1.7 mph 83% 0.14 in W/m2
02:49 46 °F 41.3 °F 29.66 in Calm   1.7 mph 83.3% 0.16 in W/m2
02:54 46 °F 41.5 °F 29.66 in Calm     84% 0.16 in W/m2
02:59 46 °F 41.5 °F 29.66 in East 3.2 mph 3.9 mph 84% 0.16 in W/m2
03:04 45.9 °F 41.3 °F 29.67 in East 3.9 mph 3.9 mph 84% 0.14 in W/m2
03:09 45.8 °F 41.2 °F 29.67 in East 2.2 mph 3.9 mph 84% 0.14 in W/m2
03:14 45.7 °F 41.2 °F 29.67 in East 0.6 mph 3.9 mph 84.3% 0.16 in W/m2
03:19 45.7 °F 41.4 °F 29.67 in Calm   3.9 mph 85% 0.16 in W/m2
03:24 45.7 °F 41.4 °F 29.67 in Calm   1.7 mph 85% 0.14 in W/m2
03:29 45.7 °F 41.4 °F 29.66 in East 7.1 mph 9.4 mph 85% 0.13 in W/m2
03:34 45.7 °F 41.4 °F 29.65 in East 0.9 mph 9.4 mph 85% 0.11 in W/m2
03:39 45.7 °F 41.7 °F 29.65 in East 0.3 mph 9.4 mph 86% 0.10 in W/m2
03:44 45.7 °F 41.7 °F 29.65 in Calm   3.9 mph 86% 0.08 in W/m2
03:49 45.7 °F 41.7 °F 29.65 in Calm   1.7 mph 86% 0.08 in W/m2
03:54 45.7 °F 41.8 °F 29.65 in Calm     86.3% 0.07 in W/m2
03:59 45.7 °F 42 °F 29.64 in Calm     87% 0.07 in W/m2
04:04 45.7 °F 42 °F 29.64 in Calm     87% 0.06 in W/m2
04:09 45.7 °F 42 °F 29.64 in Calm     87% 0.06 in W/m2
04:14 45.7 °F 42 °F 29.63 in East 2.4 mph 5.5 mph 87% 0.02 in W/m2
04:19 45.7 °F 42.2 °F 29.62 in East 4.2 mph 5.5 mph 87.5% 0.00 in W/m2
04:24 45.7 °F 42.3 °F 29.62 in East 1.5 mph 5.5 mph 88% 0.01 in W/m2
04:29 45.7 °F 42.3 °F 29.62 in Calm   5.5 mph 88% 0.02 in W/m2
04:34 45.7 °F 42.3 °F 29.62 in Calm   5.5 mph 88% 0.02 in W/m2
04:39 45.7 °F 42.3 °F 29.62 in Calm     88% 0.02 in W/m2
04:44 45.7 °F 42.4 °F 29.62 in Calm     88.2% 0.02 in W/m2
04:49 45.9 °F 42.8 °F 29.61 in Calm     89% 0.02 in W/m2
04:54 45.9 °F 42.8 °F 29.61 in Calm     89% 0.02 in W/m2
04:59 45.9 °F 42.8 °F 29.61 in Calm     89% 0.02 in W/m2
05:04 45.9 °F 42.8 °F 29.61 in Calm     89% 0.02 in W/m2
05:09 45.9 °F 42.8 °F 29.61 in Calm     89% 0.02 in W/m2
05:14 45.9 °F 42.9 °F 29.61 in Calm     89.5% 0.02 in W/m2
05:19 46 °F 43.2 °F 29.61 in East 1.2 mph 3.9 mph 90% 0.02 in W/m2
05:24 46.1 °F 43.4 °F 29.61 in East 1.3 mph 3.9 mph 90% 0.02 in W/m2
05:29 46.3 °F 43.4 °F 29.60 in NE 2 mph 9.4 mph 89.7% 0.00 in W/m2
05:34 46.5 °F 43.5 °F 29.60 in ESE 5.9 mph 9.4 mph 89.3% 0.00 in W/m2
05:39 46.7 °F 43.9 °F 29.60 in SE 3.9 mph 9.4 mph 90% 0.00 in W/m2
05:44 47 °F 44.2 °F 29.60 in SE 7.4 mph 13.3 mph 90% 0.00 in W/m2
05:49 47.1 °F 44.3 °F 29.60 in SE 1.9 mph 13.3 mph 90% 0.00 in W/m2
05:54 47.3 °F 44.5 °F 29.60 in East 3.1 mph 13.3 mph 90% 0.00 in W/m2
05:59 47.3 °F 44.6 °F 29.60 in ESE 3.8 mph 7.8 mph 90.2% 0.06 in W/m2
06:04 47.5 °F 45 °F 29.59 in East 4 mph 7.8 mph 91% 0.08 in W/m2
06:09 47.5 °F 45 °F 29.59 in East 1.5 mph 7.8 mph 91% 0.10 in W/m2
06:14 47.5 °F 45 °F 29.58 in East 2.9 mph 7.8 mph 91% 0.11 in W/m2
06:19 47.6 °F 45.1 °F 29.57 in East 1.8 mph 7.8 mph 91% 0.13 in W/m2
06:24 47.7 °F 45.2 °F 29.58 in Calm   7.8 mph 91% 0.14 in W/m2
06:29 47.7 °F 45.2 °F 29.58 in NW 1.7 mph 5.5 mph 91% 0.16 in W/m2
06:34 47.8 °F 45.3 °F 29.58 in NE 0.9 mph 5.5 mph 91% 0.17 in W/m2
06:39 47.8 °F 45.3 °F 29.58 in East 5.1 mph 9.4 mph 91% 0.20 in W/m2
06:44 47.8 °F 45.3 °F 29.57 in ESE 8 mph 9.4 mph 91% 0.20 in W/m2
06:49 47.9 °F 45.6 °F 29.56 in SE 7.5 mph 9.4 mph 91.8% 0.22 in W/m2
06:54 48 °F 45.8 °F 29.56 in SE 7.2 mph 9.4 mph 92% 0.22 in W/m2
06:59 48.2 °F 45.7 °F 29.56 in NNW 4.2 mph 9.4 mph 91.2% 0.18 in W/m2
07:04 48.2 °F 45.7 °F 29.56 in Calm   7.8 mph 91% 0.16 in W/m2
07:09 48.3 °F 45.8 °F 29.56 in SW 0.5 mph 7.8 mph 91% 0.14 in W/m2
07:14 48.4 °F 45.9 °F 29.56 in SW 2 mph 5.5 mph 91% 0.13 in W/m2
07:19 48.5 °F 46 °F 29.56 in NE 1 mph 5.5 mph 91% 0.13 in W/m2
07:24 48.6 °F 46.1 °F 29.56 in NE 3.5 mph 7.8 mph 91% 0.13 in W/m2
07:29 48.6 °F 46.1 °F 29.56 in ENE 2.1 mph 7.8 mph 91% 0.11 in W/m2
07:34 48.6 °F 46.1 °F 29.56 in Calm   7.8 mph 91% 0.10 in W/m2
07:39 48.7 °F 46.5 °F 29.56 in East 3.3 mph 7.8 mph 92% 0.10 in W/m2
07:44 48.8 °F 46.6 °F 29.56 in East 0.5 mph 5.5 mph 92% 0.14 in W/m2
07:49 48.9 °F 46.7 °F 29.57 in WSW 4.4 mph 9.4 mph 92% 0.16 in W/m2
07:54 49.1 °F 46.9 °F 29.57 in NW 1.1 mph 9.4 mph 92% 0.18 in W/m2
07:59 49.1 °F 46.9 °F 29.57 in Calm   9.4 mph 92% 0.18 in W/m2
08:04 49.1 °F 46.9 °F 29.57 in Calm   5.5 mph 92% 0.18 in W/m2
08:09 49.1 °F 46.9 °F 29.57 in Calm     92% 0.20 in W/m2
08:14 49.1 °F 46.9 °F 29.57 in East 2.2 mph 7.8 mph 92% 0.22 in W/m2
08:19 49.1 °F 46.9 °F 29.56 in East 2.2 mph 7.8 mph 92% 0.24 in W/m2
08:24 49.2 °F 47 °F 29.57 in NE 0.2 mph 7.8 mph 92% 0.25 in W/m2
08:29 49.5 °F 47.2 °F 29.56 in South 5.1 mph 7.8 mph 92% 0.26 in W/m2
08:34 49.8 °F 47.8 °F 29.56 in SSE 5.5 mph 9.4 mph 92.8% 0.26 in W/m2
08:39 50.1 °F 47.9 °F 29.55 in South 4.4 mph 11.1 mph 92% 0.26 in W/m2
08:44 50.3 °F 48 °F 29.56 in SSE 6.6 mph 11.1 mph 92% 0.24 in W/m2
08:49 50.4 °F 48.1 °F 29.56 in South 3.5 mph 11.1 mph 92% 0.22 in W/m2
08:54 50.5 °F 48.2 °F 29.55 in SE 4.8 mph 11.1 mph 92% 0.20 in W/m2
08:59 50.5 °F 48.3 °F 29.56 in South 4.3 mph 11.1 mph 92% 0.18 in W/m2
09:04 50.5 °F 48.3 °F 29.55 in South 1.7 mph 11.1 mph 92% 0.17 in W/m2
09:09 50.6 °F 48.5 °F 29.55 in East 4.9 mph 11.1 mph 92.4% 0.16 in W/m2
09:14 50.7 °F 48.8 °F 29.55 in SE 6.7 mph 11.1 mph 93% 0.14 in W/m2
09:19 50.7 °F 48.8 °F 29.54 in SSE 8.3 mph 11.1 mph 93% 0.13 in W/m2
09:24 50.8 °F 48.9 °F 29.54 in South 7.1 mph 11.1 mph 93% 0.11 in W/m2
09:29 50.9 °F 49 °F 29.54 in SE 9.2 mph 13.3 mph 93% 0.08 in W/m2
09:34 50.9 °F 49 °F 29.53 in SE 7.9 mph 13.3 mph 93% 0.07 in W/m2
09:39 51.1 °F 49.1 °F 29.53 in South 13 mph 20.5 mph 93% 0.07 in W/m2
09:44 51.1 °F 49.1 °F 29.52 in SSE 9.7 mph 20.5 mph 93% 0.07 in W/m2
09:49 51.2 °F 49.2 °F 29.52 in ESE 13.1 mph 20.5 mph 93% 0.06 in W/m2
09:54 51.3 °F 49.3 °F 29.50 in South 9 mph 17.2 mph 93% 0.06 in W/m2
09:59 51.3 °F 49.3 °F 29.50 in SSE 11.3 mph 17.2 mph 93% 0.06 in W/m2
10:04 51.4 °F 49.4 °F 29.50 in SSE 8.9 mph 17.2 mph 93% 0.06 in W/m2
10:09 51.4 °F 49.5 °F 29.49 in South 10.6 mph 17.2 mph 93% 0.06 in W/m2
10:14 51.6 °F 49.7 °F 29.49 in SE 11.5 mph 14.9 mph 93% 0.06 in W/m2
10:19 51.6 °F 49.7 °F 29.50 in SSE 10.7 mph 14.9 mph 93% 0.05 in W/m2
10:24 51.6 °F 49.7 °F 29.52 in South 11 mph 18.8 mph 93% 0.05 in W/m2
10:29 51.8 °F 49.6 °F 29.52 in SSE 8 mph 18.8 mph 92.2% 0.06 in W/m2
10:34 51.9 °F 49.7 °F 29.52 in SSE 11.7 mph 18.8 mph 92% 0.06 in W/m2
10:39 52 °F 49.7 °F 29.52 in SSE 14.2 mph 18.8 mph 92% 0.06 in W/m2
10:44 52.2 °F 49.9 °F 29.52 in SSE 14.6 mph 18.8 mph 92% 0.05 in W/m2
10:49 52.3 °F 50.1 °F 29.51 in South 16.2 mph 24.4 mph 92% 0.02 in W/m2
10:54 52.4 °F 49.9 °F 29.52 in SSE 19 mph 24.4 mph 91.1% 0.05 in W/m2
11:04 52.7 °F 50.2 °F 29.51 in SSE 29.9 mph 29.9 mph 91% 0.02 in W/m2
11:09 52.7 °F 50.2 °F 29.51 in SSE 23.1 mph 29.9 mph 91% 0.02 in W/m2
11:14 52.7 °F 50 °F 29.51 in SE 13.6 mph 29.9 mph 90.2% 0.02 in W/m2
11:19 52.7 °F 49.9 °F 29.50 in SE 11 mph 29.9 mph 90% 0.05 in W/m2
11:24 52.8 °F 50 °F 29.50 in South 14.4 mph 28.2 mph 90% 0.05 in W/m2
11:29 52.8 °F 50 °F 29.50 in SSE 14.7 mph 28.2 mph 90% 0.05 in W/m2
11:34 52.8 °F 49.9 °F 29.50 in SSE 18.2 mph 28.2 mph 89.7% 0.02 in W/m2
11:39 52.9 °F 49.7 °F 29.49 in SSE 15.4 mph 28.2 mph 89% 0.02 in W/m2
11:44 52.9 °F 49.7 °F 29.49 in SSW 13.2 mph 28.2 mph 89% 0.02 in W/m2
11:49 52.9 °F 49.7 °F 29.49 in South 14.3 mph 24.4 mph 89% 0.06 in W/m2
11:54 53.1 °F 49.9 °F 29.48 in SE 17.3 mph 24.4 mph 89% 0.05 in W/m2
11:59 53.1 °F 49.9 °F 29.48 in ESE 15.5 mph 24.4 mph 89% 0.06 in W/m2
12:04 53.1 °F 49.9 °F 29.48 in South 16.4 mph 26.6 mph 89% 0.06 in W/m2
12:09 53.2 °F 50.1 °F 29.48 in South 16.7 mph 26.6 mph 89% 0.06 in W/m2
12:14 53.2 °F 50.1 °F 29.48 in SSW 13.4 mph 26.6 mph 89% 0.06 in W/m2
12:19 53.3 °F 50.2 °F 29.47 in SSE 18.2 mph 29.9 mph 89% 0.06 in W/m2
12:24 53.4 °F 50.3 °F 29.47 in SSW 13.8 mph 29.9 mph 89% 0.05 in W/m2
12:29 53.6 °F 50.3 °F 29.47 in South 15.4 mph 29.9 mph 88.8% 0.05 in W/m2
12:34 53.8 °F 50.6 °F 29.47 in South 13.5 mph 20.5 mph 89% 0.05 in W/m2
12:39 54 °F 50.6 °F 29.46 in West 10.6 mph 20.5 mph 88.5% 0.05 in W/m2
12:44 54 °F 50.5 °F 29.46 in SSW 10.6 mph 20.5 mph 88% 0.05 in W/m2
12:49 54 °F 50.6 °F 29.46 in South 15.9 mph 24.4 mph 88% 0.02 in W/m2
12:54 54.2 °F 50.7 °F 29.46 in SW 10.4 mph 24.4 mph 88% 0.01 in W/m2
12:59 54.4 °F 50.9 °F 29.46 in South 16.5 mph 26.6 mph 88% 0.01 in W/m2
13:04 54.7 °F 51.2 °F 29.45 in SE 7 mph 26.6 mph 88% 0.00 in W/m2
13:09 55 °F 51.6 °F 29.45 in South 10 mph 26.6 mph 88% 0.00 in W/m2
13:14 55.2 °F 51.7 °F 29.44 in SSE 15.8 mph 20.5 mph 88% 0.00 in W/m2
13:19 55.4 °F 51.9 °F 29.44 in SSW 11.6 mph 20.5 mph 88% 0.00 in W/m2
13:24 55.5 °F 52 °F 29.43 in SSE 12.1 mph 18.8 mph 88% 0.00 in W/m2
13:29 55.7 °F 51.9 °F 29.43 in SSW 12.8 mph 18.8 mph 87.1% 0.00 in W/m2
13:34 55.9 °F 52.1 °F 29.43 in South 11.2 mph 18.8 mph 87% 0.00 in W/m2
13:39 56.1 °F 52.3 °F 29.43 in SSW 9.1 mph 18.8 mph 87% 0.00 in W/m2
13:44 56.3 °F 52.5 °F 29.43 in SW 8.8 mph 14.9 mph 87% 0.00 in W/m2
Juneau County Weather
Compliments of Weather Underground - 4 mb